Flight Track Log - Related Links

Times and Time Zones

All times are in EDT time to prevent confusion due to time zone crossing. See the SKW5511 flight status page for this flight to view local times or setup timezone preferences in your user account.

Time Position Orientation Groundspeed Altitude Reporting Facility
EDT Latitude Longitude Course Direction KTS MPH feet Rate Location/Type
Mon 09:22:45 PM 42.0000 -87.9500 261° West 169 194 2,000  Level Chicago TRACON
Mon 09:23:33 PM 42.0500 -87.9833 334° Northwest 221 254 3,600 2,284 Climbing Chicago TRACON
Mon 09:24:59 PM 42.1264 -88.0456 329° Northwest 256 295 7,100 2,490 Climbing Chicago Center
Mon 09:25:00 PM 41.9167 -88.4380 270° West  Level FlightAware Approximate
Mon 09:26:00 PM 41.9041 -88.5741 261° West  Level FlightAware Approximate
Mon 09:26:00 PM 42.1436 -88.1289 286° West 274 315 9,700  Level Chicago Center
Mon 09:27:00 PM 41.8881 -88.7099 261° West  Level FlightAware Approximate
Mon 09:27:02 PM 42.0975 -88.2456 242° Southwest 299 344 12,000  Level Chicago Center
Mon 09:28:04 PM 42.0697 -88.3556 251° West 312 359 14,300 2,081 Climbing Chicago Center
Mon 09:29:06 PM 42.0417 -88.4683 252° West 320 368 16,300 1,951 Climbing Chicago Center
Mon 09:30:07 PM 42.0064 -88.5864 248° West 340 391 18,300 1,951 Climbing Chicago Center
Mon 09:31:09 PM 41.9719 -88.7072 249° West 347 399 20,300 1,306 Climbing Chicago Center
Mon 09:32:11 PM 41.9303 -88.8575 250° West 363 418 21,000 339 Climbing Chicago Center
Mon 09:33:13 PM 41.8986 -88.9900 252° West 374 430 21,000  Level Chicago Center
Mon 09:34:15 PM 41.8750 -89.1258 257° West 377 434 21,000 244 Level Chicago Center
Mon 09:35:16 PM 41.8514 -89.2522 256° West 355 409 21,500 732 Climbing Chicago Center
Mon 09:36:18 PM 41.8253 -89.3783 255° West 352 405 22,500 1,065 Climbing Chicago Center
Mon 09:37:20 PM 41.7992 -89.5131 255° West 373 429 23,700 1,415 Climbing Chicago Center
Mon 09:38:21 PM 41.7797 -89.6847 261° West 390 449 25,400 1,561 Climbing Chicago Center
Mon 09:39:23 PM 41.7617 -89.8211 260° West 382 440 26,900 1,452 Climbing Chicago Center
Mon 09:40:25 PM 41.7419 -89.9550 259° West 373 429 28,400 1,452 Climbing Chicago Center
Mon 09:41:27 PM 41.7225 -90.0883 259° West 369 425 29,900 1,463 Climbing Chicago Center
Mon 09:42:28 PM 41.7031 -90.2167 259° West 359 413 31,400 1,463 Climbing Chicago Center
Mon 09:43:30 PM 41.6833 -90.3481 259° West 361 415 32,900 1,268 Climbing Chicago Center
Mon 09:44:31 PM 41.6647 -90.4747 259° West 351 404 34,000 537 Climbing Chicago Center
Mon 09:45:33 PM 41.6425 -90.6217 259° West 357 411 34,000  Level Chicago Center
Mon 09:46:34 PM 41.6219 -90.7597 259° West 376 433 34,000  Level Chicago Center
Mon 09:47:36 PM 41.6011 -90.8958 258° West 379 436 34,000  Level Chicago Center
Mon 09:48:38 PM 41.5800 -91.0333 258° West 380 437 34,000  Level Chicago Center
Mon 09:49:39 PM 41.5583 -91.1711 258° West 380 437 34,000  Level Chicago Center
Mon 09:50:41 PM 41.5333 -91.3369 259° West 381 438 34,000  Level Chicago Center
Mon 09:51:42 PM 41.5111 -91.4781 258° West 386 444 34,000  Level Chicago Center
Mon 09:52:44 PM 41.4886 -91.6161 258° West 386 444 34,000  Level Chicago Center
Mon 09:53:45 PM 41.4667 -91.7553 258° West 387 445 34,000  Level Chicago Center
Mon 09:54:47 PM 41.4444 -91.8961 258° West 390 449 34,000  Level Chicago Center
Mon 09:55:48 PM 41.4219 -92.0356 258° West 389 448 34,000  Level Chicago Center
Mon 09:56:50 PM 41.3933 -92.2025 257° West 389 448 34,000  Level Chicago Center
Mon 09:57:51 PM 41.3706 -92.3436 258° West 392 451 34,000  Level Chicago Center
Mon 09:58:53 PM 41.3458 -92.4892 257° West 388 447 34,000  Level Chicago Center
Mon 10:00:38 PM 41.3078 -92.7139 257° West 390 449 34,000  Level Minneapolis Center
Mon 10:01:39 PM 41.2797 -92.8808 257° West 390 449 34,000  Level Minneapolis Center
Mon 10:02:40 PM 41.2550 -93.0211 257° West 393 452 34,000  Level Minneapolis Center
Mon 10:03:41 PM 41.2314 -93.1608 257° West 393 452 34,000  Level Minneapolis Center
Mon 10:04:42 PM 41.2072 -93.3008 257° West 393 452 34,000  Level Minneapolis Center
Mon 10:05:43 PM 41.1814 -93.4394 256° West 392 451 34,000  Level Minneapolis Center
Mon 10:06:44 PM 41.1572 -93.5778 257° West 390 449 34,000  Level Minneapolis Center
Mon 10:07:45 PM 41.1339 -93.7158 257° West 388 447 34,000  Level Minneapolis Center
Mon 10:08:46 PM 41.1086 -93.8564 257° West 394 453 34,000  Level Minneapolis Center
Mon 10:09:47 PM 41.0778 -94.0250 256° West 395 455 34,000  Level Minneapolis Center
Mon 10:10:48 PM 41.0511 -94.1667 256° West 398 458 34,000  Level Minneapolis Center
Mon 10:11:49 PM 41.0258 -94.3061 257° West 396 456 34,000  Level Minneapolis Center
Mon 10:12:50 PM 40.9997 -94.4464 256° West 395 455 34,000  Level Minneapolis Center
Mon 10:13:51 PM 40.9739 -94.5831 256° West 393 452 34,000  Level Minneapolis Center
Mon 10:14:52 PM 40.9475 -94.7214 256° West 391 450 34,000  Level Minneapolis Center
Mon 10:15:53 PM 40.9211 -94.8617 256° West 391 450 34,000  Level Minneapolis Center
Mon 10:16:54 PM 40.8939 -95.0025 256° West 392 451 34,000  Level Minneapolis Center
Mon 10:17:55 PM 40.8650 -95.1461 255° West 399 459 34,000  Level Minneapolis Center
Mon 10:18:56 PM 40.8322 -95.3147 256° West 396 456 34,000  Level Minneapolis Center
Mon 10:19:57 PM 40.8047 -95.4575 256° West 400 460 34,000  Level Minneapolis Center
Mon 10:20:58 PM 40.7767 -95.6008 256° West 402 463 34,000  Level Minneapolis Center
Mon 10:21:59 PM 40.7483 -95.7458 256° West 404 465 34,000  Level Minneapolis Center
Mon 10:23:00 PM 40.7186 -95.8925 255° West 410 472 34,000  Level Minneapolis Center
Mon 10:24:01 PM 40.6897 -96.0400 256° West 412 474 34,000  Level Minneapolis Center
Mon 10:25:01 PM 40.6586 -96.1889 255° West 416 479 34,000  Level Minneapolis Center
Mon 10:26:02 PM 40.6292 -96.3364 255° West 417 480 34,000  Level Minneapolis Center
Mon 10:27:03 PM 40.5992 -96.4828 255° West 414 476 34,000  Level Minneapolis Center
Mon 10:28:04 PM 40.5689 -96.6283 255° West 412 474 34,000  Level Minneapolis Center
Mon 10:29:05 PM 40.5383 -96.7725 254° West 410 472 34,000  Level Minneapolis Center
Mon 10:30:06 PM 40.5089 -96.9128 255° West 402 463 34,000  Level Minneapolis Center
Mon 10:31:07 PM 40.4797 -97.0536 255° West 401 461 34,000  Level Minneapolis Center
Mon 10:32:08 PM 40.4506 -97.1919 255° West 396 456 34,000  Level Minneapolis Center
Mon 10:33:09 PM 40.4194 -97.3303 254° West 395 455 34,000  Level Minneapolis Center
Mon 10:34:10 PM 40.3889 -97.4794 255° West 396 456 34,000  Level Minneapolis Center
Mon 10:35:11 PM 40.3583 -97.6178 254° West 395 455 34,000  Level Minneapolis Center
Mon 10:36:12 PM 40.3286 -97.7572 254° West 396 456 34,000  Level Minneapolis Center
Mon 10:37:13 PM 40.2983 -97.8958 254° West 395 455 34,000  Level Minneapolis Center
Mon 10:38:13 PM 40.2667 -98.0350 253° West 396 456 34,000  Level Minneapolis Center
Mon 10:39:14 PM 40.2361 -98.1719 254° West 393 452 34,000  Level Minneapolis Center
Mon 10:40:15 PM 40.2053 -98.3108 254° West 395 455 34,000  Level Minneapolis Center
Mon 10:41:16 PM 40.1736 -98.4492 253° West 395 455 34,000  Level Minneapolis Center
Mon 10:42:17 PM 40.1419 -98.5878 253° West 397 457 34,000  Level Minneapolis Center
Mon 10:43:18 PM 40.1106 -98.7267 254° West 397 457 34,000  Level Minneapolis Center
Mon 10:44:48 PM 40.0600 -98.9481 253° West 396 456 34,000  Level Denver Center
Mon 10:45:50 PM 40.0275 -99.0861 253° West 397 457 34,000  Level Denver Center
Mon 10:46:51 PM 39.9961 -99.2244 254° West 397 457 34,000  Level Denver Center
Mon 10:47:53 PM 39.9631 -99.3642 253° West 402 463 34,000  Level Denver Center
Mon 10:48:55 PM 39.9294 -99.5036 253° West 402 463 34,000  Level Denver Center
Mon 10:49:57 PM 39.8531 -99.6114 227° Southwest 407 468 34,000  Level Denver Center
Mon 10:50:58 PM 39.7578 -99.7375 226° Southwest 406 467 34,000  Level Denver Center
Mon 10:52:00 PM 39.6856 -99.8511 230° Southwest 409 471 34,000  Level Denver Center
Mon 10:53:02 PM 39.6431 -99.9750 246° West 401 461 34,000  Level Denver Center
Mon 10:54:03 PM 39.6050 -100.1311 252° West 405 466 34,000  Level Denver Center
Mon 10:55:05 PM 39.5717 -100.2658 252° West 407 468 34,000  Level Denver Center
Mon 10:56:07 PM 39.5336 -100.4236 253° West 410 472 34,000  Level Denver Center
Mon 10:57:08 PM 39.5000 -100.5539 252° West 404 465 34,000 -341 Level Denver Center
Mon 10:58:10 PM 39.4667 -100.6889 252° West 407 468 33,300 -871 Descending Denver Center
Mon 10:59:12 PM 39.4286 -100.8403 252° West 398 458 32,200 -1,024 Descending Denver Center
Mon 11:00:13 PM 39.4044 -100.9750 257° West 398 458 31,200 -1,024 Descending Denver Center
Mon 11:01:15 PM 39.3856 -101.1375 261° West 406 467 30,100 -1,016 Descending Denver Center
Mon 11:02:17 PM 39.3681 -101.2753 261° West 405 466 29,100 -976 Descending Denver Center
Mon 11:03:18 PM 39.3528 -101.4050 261° West 386 444 28,100 -537 Descending Denver Center
Mon 11:04:20 PM 39.3339 -101.5556 261° West 381 438 28,000 -49 Descending Denver Center
Mon 11:05:21 PM 39.3147 -101.7056 261° West 391 450 28,000  Level Denver Center
Mon 11:06:23 PM 39.2981 -101.8375 261° West 391 450 28,000  Level Denver Center
Mon 11:07:25 PM 39.2808 -101.9694 260° West 392 451 28,000  Level Denver Center
Mon 11:08:26 PM 39.2600 -102.1236 260° West 391 450 28,000  Level Denver Center
Mon 11:09:28 PM 39.2272 -102.2492 251° West 387 445 28,000  Level Denver Center
Mon 11:10:29 PM 39.1844 -102.3900 249° West 380 437 28,000 -390 Level Denver Center
Mon 11:11:31 PM 39.1489 -102.5108 249° West 379 436 27,200 -919 Descending Denver Center
Mon 11:12:33 PM 39.1069 -102.6533 249° West 383 441 26,100 -976 Descending Denver Center
Mon 11:13:34 PM 39.0708 -102.7783 250° West 392 451 25,200 -927 Descending Denver Center
Mon 11:14:36 PM 39.0292 -102.9133 248° West 399 459 24,200 -585 Descending Denver Center
Mon 11:15:37 PM 38.9872 -103.0489 248° West 403 464 24,000 -98 Descending Denver Center
Mon 11:16:39 PM 38.9494 -103.1769 249° West 385 443 24,000 -439 Level Denver Center
Mon 11:17:40 PM 38.9111 -103.3053 249° West 380 437 23,100 -1,707 Descending Denver Center
Mon 11:18:42 PM 38.8733 -103.4319 249° West 376 433 20,500 -2,683 Descending Denver Center
Mon 11:19:43 PM 38.8375 -103.5519 249° West 353 406 17,600 -1,756 Descending Denver Center
Mon 11:20:45 PM 38.8261 -103.6833 264° West 344 396 16,900 -829 Descending Denver Center
Mon 11:21:46 PM 38.8406 -103.8058 279° West 364 419 15,900 -1,171 Descending Denver Center
Mon 11:22:48 PM 38.8569 -103.9394 279° West 348 400 14,500 -927 Descending Denver Center
Mon 11:23:49 PM 38.8719 -104.0581 279° West 337 388 14,000 -976 Descending Denver Center
Mon 11:24:51 PM 38.8531 -104.1742 258° West 322 371 12,500 -1,024 Descending Denver Center
Mon 11:25:52 PM 38.8244 -104.2722 249° West 310 357 11,900 -780 Descending Denver Center
Mon 11:26:54 PM 38.7989 -104.3675 251° West 301 346 10,900 -1,024 Descending Denver Center
Mon 11:27:55 PM 38.7700 -104.4686 250° West 281 323 9,800 -1,024 Descending Denver Center
Mon 11:28:57 PM 38.7372 -104.5489 242° Southwest 273 314 8,800 -829 Descending Denver Center
Mon 11:29:58 PM 38.6931 -104.6272 234° Southwest 259 298 8,100 -689 Descending Denver Center

Login

Don't have an account? Register now (free) for customized features, flight alerts, and more!